sensor_id;sensor_type;location;lat;lon;timestamp;pressure;altitude;pressure_sealevel;temperature;humidity
47280;BME280;34064;44.942;0.008;2023-04-28T00:00:19;98454.56;;;19.47;58.17
47280;BME280;34064;44.942;0.008;2023-04-28T00:02:45;98451.78;;;19.40;58.42
47280;BME280;34064;44.942;0.008;2023-04-28T00:05:13;98452.97;;;19.38;58.31
47280;BME280;34064;44.942;0.008;2023-04-28T00:07:40;98456.41;;;19.31;58.28
47280;BME280;34064;44.942;0.008;2023-04-28T00:10:07;98455.91;;;19.28;58.63
47280;BME280;34064;44.942;0.008;2023-04-28T00:12:33;98456.97;;;19.27;58.32
47280;BME280;34064;44.942;0.008;2023-04-28T00:15:00;98447.84;;;19.28;58.15
47280;BME280;34064;44.942;0.008;2023-04-28T00:17:27;98439.59;;;19.29;58.09
47280;BME280;34064;44.942;0.008;2023-04-28T00:19:53;98449.91;;;19.26;58.48
47280;BME280;34064;44.942;0.008;2023-04-28T00:22:19;98444.88;;;19.23;58.22
47280;BME280;34064;44.942;0.008;2023-04-28T00:24:46;98448.75;;;19.20;58.38
47280;BME280;34064;44.942;0.008;2023-04-28T00:27:13;98452.16;;;19.14;58.47
47280;BME280;34064;44.942;0.008;2023-04-28T00:29:39;98445.09;;;19.13;58.27
47280;BME280;34064;44.942;0.008;2023-04-28T00:32:06;98442.41;;;19.13;58.15
47280;BME280;34064;44.942;0.008;2023-04-28T00:34:33;98439.72;;;19.13;58.08
47280;BME280;34064;44.942;0.008;2023-04-28T00:37:02;98429.34;;;19.10;58.14
47280;BME280;34064;44.942;0.008;2023-04-28T00:39:29;98426.81;;;19.08;58.15
47280;BME280;34064;44.942;0.008;2023-04-28T00:41:56;98431.91;;;19.03;58.38
47280;BME280;34064;44.942;0.008;2023-04-28T00:44:22;98437.84;;;18.98;58.37
47280;BME280;34064;44.942;0.008;2023-04-28T00:46:49;98445.28;;;18.88;58.74
47280;BME280;34064;44.942;0.008;2023-04-28T00:49:16;98445.94;;;18.90;58.60
47280;BME280;34064;44.942;0.008;2023-04-28T00:51:44;98446.28;;;18.87;58.62
47280;BME280;34064;44.942;0.008;2023-04-28T00:54:13;98441.94;;;18.86;58.62
47280;BME280;34064;44.942;0.008;2023-04-28T00:56:39;98432.19;;;18.85;58.62
47280;BME280;34064;44.942;0.008;2023-04-28T00:59:06;98422.25;;;18.85;58.45
47280;BME280;34064;44.942;0.008;2023-04-28T01:01:33;98422.81;;;18.81;58.79
47280;BME280;34064;44.942;0.008;2023-04-28T01:04:00;98424.16;;;18.77;59.34
47280;BME280;34064;44.942;0.008;2023-04-28T01:06:26;98421.19;;;18.71;59.40
47280;BME280;34064;44.942;0.008;2023-04-28T01:08:54;98426.75;;;18.70;58.74
47280;BME280;34064;44.942;0.008;2023-04-28T01:11:20;98434.72;;;18.63;59.20
47280;BME280;34064;44.942;0.008;2023-04-28T01:13:47;98435.06;;;18.60;59.12
47280;BME280;34064;44.942;0.008;2023-04-28T01:16:13;98435.91;;;18.61;58.90
47280;BME280;34064;44.942;0.008;2023-04-28T01:18:46;98428.84;;;18.60;58.74
47280;BME280;34064;44.942;0.008;2023-04-28T01:21:31;98433.75;;;18.56;58.91
47280;BME280;34064;44.942;0.008;2023-04-28T01:24:01;98428.72;;;18.53;59.08
47280;BME280;34064;44.942;0.008;2023-04-28T01:26:30;98430.75;;;18.51;58.84
47280;BME280;34064;44.942;0.008;2023-04-28T01:28:57;98432.41;;;18.52;58.79
47280;BME280;34064;44.942;0.008;2023-04-28T01:31:24;98431.41;;;18.53;58.39
47280;BME280;34064;44.942;0.008;2023-04-28T01:33:56;98433.78;;;18.48;59.20
47280;BME280;34064;44.942;0.008;2023-04-28T01:36:28;98442.56;;;18.42;59.69
47280;BME280;34064;44.942;0.008;2023-04-28T01:38:54;98447.13;;;18.41;59.33
47280;BME280;34064;44.942;0.008;2023-04-28T01:41:21;98438.00;;;18.42;58.81
47280;BME280;34064;44.942;0.008;2023-04-28T01:43:47;98430.97;;;18.41;58.83
47280;BME280;34064;44.942;0.008;2023-04-28T01:46:14;98433.81;;;18.39;58.83
47280;BME280;34064;44.942;0.008;2023-04-28T01:48:40;98435.03;;;18.37;58.84
47280;BME280;34064;44.942;0.008;2023-04-28T01:51:06;98442.44;;;18.35;59.27
47280;BME280;34064;44.942;0.008;2023-04-28T01:53:33;98449.00;;;18.32;59.22
47280;BME280;34064;44.942;0.008;2023-04-28T01:55:59;98451.41;;;18.27;59.54
47280;BME280;34064;44.942;0.008;2023-04-28T01:58:26;98451.88;;;18.31;59.04
47280;BME280;34064;44.942;0.008;2023-04-28T02:00:52;98448.19;;;18.32;58.96
47280;BME280;34064;44.942;0.008;2023-04-28T02:03:18;98449.81;;;18.33;58.79
47280;BME280;34064;44.942;0.008;2023-04-28T02:05:45;98456.06;;;18.33;58.82
47280;BME280;34064;44.942;0.008;2023-04-28T02:08:11;98440.94;;;18.32;58.79
47280;BME280;34064;44.942;0.008;2023-04-28T02:10:37;98445.66;;;18.30;59.10
47280;BME280;34064;44.942;0.008;2023-04-28T02:13:04;98442.28;;;18.28;59.14
47280;BME280;34064;44.942;0.008;2023-04-28T02:15:30;98434.22;;;18.28;59.02
47280;BME280;34064;44.942;0.008;2023-04-28T02:17:57;98427.19;;;18.27;58.96
47280;BME280;34064;44.942;0.008;2023-04-28T02:20:23;98427.34;;;18.26;59.25
47280;BME280;34064;44.942;0.008;2023-04-28T02:22:51;98429.03;;;18.27;59.43
47280;BME280;34064;44.942;0.008;2023-04-28T02:25:17;98431.91;;;18.25;59.28
47280;BME280;34064;44.942;0.008;2023-04-28T02:27:44;98432.72;;;18.26;59.14
47280;BME280;34064;44.942;0.008;2023-04-28T02:30:12;98437.28;;;18.25;59.20
47280;BME280;34064;44.942;0.008;2023-04-28T02:32:38;98432.72;;;18.26;59.17
47280;BME280;34064;44.942;0.008;2023-04-28T02:35:05;98431.91;;;18.25;59.05
47280;BME280;34064;44.942;0.008;2023-04-28T02:37:31;98429.88;;;18.27;59.02
47280;BME280;34064;44.942;0.008;2023-04-28T02:39:58;98431.53;;;18.28;58.92
47280;BME280;34064;44.942;0.008;2023-04-28T02:42:24;98437.75;;;18.29;59.06
47280;BME280;34064;44.942;0.008;2023-04-28T02:44:51;98438.59;;;18.29;59.02
47280;BME280;34064;44.942;0.008;2023-04-28T02:47:17;98431.53;;;18.28;58.94
47280;BME280;34064;44.942;0.008;2023-04-28T02:49:43;98427.84;;;18.29;59.08
47280;BME280;34064;44.942;0.008;2023-04-28T02:52:10;98433.22;;;18.29;59.16
47280;BME280;34064;44.942;0.008;2023-04-28T02:54:36;98424.13;;;18.30;59.24
47280;BME280;34064;44.942;0.008;2023-04-28T02:57:03;98429.50;;;18.30;58.86
47280;BME280;34064;44.942;0.008;2023-04-28T02:59:29;98425.81;;;18.31;59.10
47280;BME280;34064;44.942;0.008;2023-04-28T03:01:56;98419.44;;;18.32;59.13
47280;BME280;34064;44.942;0.008;2023-04-28T03:04:22;98427.69;;;18.31;59.36
47280;BME280;34064;44.942;0.008;2023-04-28T03:06:49;98425.63;;;18.33;59.17
47280;BME280;34064;44.942;0.008;2023-04-28T03:09:16;98425.47;;;18.34;59.16
47280;BME280;34064;44.942;0.008;2023-04-28T03:11:42;98432.03;;;18.32;59.73
47280;BME280;34064;44.942;0.008;2023-04-28T03:14:08;98431.91;;;18.25;60.10
47280;BME280;34064;44.942;0.008;2023-04-28T03:16:35;98439.63;;;18.20;60.30
47280;BME280;34064;44.942;0.008;2023-04-28T03:19:01;98436.97;;;18.20;60.16
47280;BME280;34064;44.942;0.008;2023-04-28T03:21:28;98436.97;;;18.20;60.00
47280;BME280;34064;44.942;0.008;2023-04-28T03:23:55;98425.56;;;18.18;60.23
47280;BME280;34064;44.942;0.008;2023-04-28T03:26:21;98426.19;;;18.20;59.99
47280;BME280;34064;44.942;0.008;2023-04-28T03:28:47;98423.50;;;18.20;59.82
47280;BME280;34064;44.942;0.008;2023-04-28T03:31:14;98423.88;;;18.17;60.57
47280;BME280;34064;44.942;0.008;2023-04-28T03:33:40;98432.78;;;18.17;60.21
47280;BME280;34064;44.942;0.008;2023-04-28T03:36:07;98422.69;;;18.19;59.95
47280;BME280;34064;44.942;0.008;2023-04-28T03:38:34;98420.19;;;18.18;60.51
47280;BME280;34064;44.942;0.008;2023-04-28T03:41:00;98432.59;;;18.19;60.51
47280;BME280;34064;44.942;0.008;2023-04-28T03:43:26;98415.81;;;18.17;60.85
47280;BME280;34064;44.942;0.008;2023-04-28T03:45:53;98428.88;;;18.20;60.07
47280;BME280;34064;44.942;0.008;2023-04-28T03:48:19;98423.50;;;18.20;60.26
47280;BME280;34064;44.942;0.008;2023-04-28T03:50:46;98419.34;;;18.17;60.14
47280;BME280;34064;44.942;0.008;2023-04-28T03:53:12;98423.88;;;18.17;60.13
47280;BME280;34064;44.942;0.008;2023-04-28T03:55:38;98424.22;;;18.14;60.45
47280;BME280;34064;44.942;0.008;2023-04-28T03:58:05;98420.03;;;18.11;60.46
47280;BME280;34064;44.942;0.008;2023-04-28T04:00:31;98415.88;;;18.08;60.25
47280;BME280;34064;44.942;0.008;2023-04-28T04:02:57;98427.97;;;18.04;60.67
47280;BME280;34064;44.942;0.008;2023-04-28T04:05:24;98423.25;;;18.06;60.39
47280;BME280;34064;44.942;0.008;2023-04-28T04:07:50;98416.22;;;18.05;60.34
47280;BME280;34064;44.942;0.008;2023-04-28T04:10:17;98416.41;;;18.04;60.24
47280;BME280;34064;44.942;0.008;2023-04-28T04:12:43;98408.47;;;18.02;60.27
47280;BME280;34064;44.942;0.008;2023-04-28T04:15:10;98410.88;;;17.97;60.44
47280;BME280;34064;44.942;0.008;2023-04-28T04:17:37;98416.75;;;17.92;61.06
47280;BME280;34064;44.942;0.008;2023-04-28T04:20:04;98414.22;;;17.91;61.07
47280;BME280;34064;44.942;0.008;2023-04-28T04:22:30;98411.00;;;17.96;60.83
47280;BME280;34064;44.942;0.008;2023-04-28T04:24:57;98401.97;;;17.97;60.65
47280;BME280;34064;44.942;0.008;2023-04-28T04:27:23;98392.06;;;17.97;60.92
47280;BME280;34064;44.942;0.008;2023-04-28T04:29:50;98403.63;;;17.98;60.66
47280;BME280;34064;44.942;0.008;2023-04-28T04:32:16;98391.06;;;17.98;60.57
47280;BME280;34064;44.942;0.008;2023-04-28T04:34:42;98399.13;;;17.98;60.89
47280;BME280;34064;44.942;0.008;2023-04-28T04:37:09;98405.50;;;17.97;60.73
47280;BME280;34064;44.942;0.008;2023-04-28T04:39:36;98413.19;;;17.92;60.79
47280;BME280;34064;44.942;0.008;2023-04-28T04:42:02;98404.66;;;17.88;60.76
47280;BME280;34064;44.942;0.008;2023-04-28T04:44:29;98414.91;;;17.85;61.29
47280;BME280;34064;44.942;0.008;2023-04-28T04:46:55;98420.28;;;17.85;61.07
47280;BME280;34064;44.942;0.008;2023-04-28T04:49:21;98426.19;;;17.80;61.13
47280;BME280;34064;44.942;0.008;2023-04-28T04:51:48;98424.31;;;17.81;61.06
47280;BME280;34064;44.942;0.008;2023-04-28T04:54:14;98416.25;;;17.81;61.20
47280;BME280;34064;44.942;0.008;2023-04-28T04:56:41;98416.09;;;17.82;61.15
47280;BME280;34064;44.942;0.008;2023-04-28T04:59:07;98429.03;;;17.87;61.00
47280;BME280;34064;44.942;0.008;2023-04-28T05:01:34;98432.72;;;17.86;62.02
47280;BME280;34064;44.942;0.008;2023-04-28T05:04:00;98441.09;;;17.83;62.16
47280;BME280;34064;44.942;0.008;2023-04-28T05:06:27;98435.59;;;17.84;61.83
47280;BME280;34064;44.942;0.008;2023-04-28T05:08:53;98443.13;;;17.89;61.54
47280;BME280;34064;44.942;0.008;2023-04-28T05:11:21;98449.13;;;17.91;61.27
47280;BME280;34064;44.942;0.008;2023-04-28T05:13:47;98457.03;;;17.92;61.41
47280;BME280;34064;44.942;0.008;2023-04-28T05:16:14;98455.19;;;17.93;61.77
47280;BME280;34064;44.942;0.008;2023-04-28T05:18:41;98456.56;;;17.97;61.55
47280;BME280;34064;44.942;0.008;2023-04-28T05:21:07;98448.13;;;18.00;61.66
47280;BME280;34064;44.942;0.008;2023-04-28T05:23:33;98435.34;;;18.02;61.33
47280;BME280;34064;44.942;0.008;2023-04-28T05:26:00;98438.53;;;18.06;61.35
47280;BME280;34064;44.942;0.008;2023-04-28T05:28:26;98444.56;;;18.08;61.26
47280;BME280;34064;44.942;0.008;2023-04-28T05:30:52;98443.09;;;18.05;61.98
47280;BME280;34064;44.942;0.008;2023-04-28T05:33:19;98444.38;;;18.09;61.82
47280;BME280;34064;44.942;0.008;2023-04-28T05:35:45;98439.69;;;18.12;62.07
47280;BME280;34064;44.942;0.008;2023-04-28T05:38:12;98438.69;;;18.13;62.35
47280;BME280;34064;44.942;0.008;2023-04-28T05:40:38;98450.09;;;18.15;62.38
47280;BME280;34064;44.942;0.008;2023-04-28T05:43:06;98445.38;;;18.17;62.42
47280;BME280;34064;44.942;0.008;2023-04-28T05:45:35;98435.13;;;18.20;62.46
47280;BME280;34064;44.942;0.008;2023-04-28T05:48:03;98426.03;;;18.21;62.34
47280;BME280;34064;44.942;0.008;2023-04-28T05:50:30;98429.03;;;18.27;62.40
47280;BME280;34064;44.942;0.008;2023-04-28T05:52:57;98436.75;;;18.30;62.28
47280;BME280;34064;44.942;0.008;2023-04-28T05:55:24;98442.97;;;18.30;62.54
47280;BME280;34064;44.942;0.008;2023-04-28T05:57:53;98446.97;;;18.34;62.34
47280;BME280;34064;44.942;0.008;2023-04-28T06:00:20;98451.97;;;18.37;62.35
47280;BME280;34064;44.942;0.008;2023-04-28T06:02:46;98442.56;;;18.42;62.00
47280;BME280;34064;44.942;0.008;2023-04-28T06:05:13;98436.84;;;18.45;62.23
47280;BME280;34064;44.942;0.008;2023-04-28T06:07:40;98440.84;;;18.49;62.03
47280;BME280;34064;44.942;0.008;2023-04-28T06:10:07;98445.19;;;18.50;62.48
47280;BME280;34064;44.942;0.008;2023-04-28T06:12:34;98448.22;;;18.55;63.23
47280;BME280;34064;44.942;0.008;2023-04-28T06:15:02;98446.66;;;18.61;62.71
47280;BME280;34064;44.942;0.008;2023-04-28T06:17:28;98448.44;;;18.68;62.48
47280;BME280;34064;44.942;0.008;2023-04-28T06:19:56;98444.00;;;18.76;62.28
47280;BME280;34064;44.942;0.008;2023-04-28T06:22:24;98440.78;;;18.80;62.23
47280;BME280;34064;44.942;0.008;2023-04-28T06:24:57;98448.31;;;18.85;62.40
47280;BME280;34064;44.942;0.008;2023-04-28T06:27:27;98455.91;;;18.81;62.81
47280;BME280;34064;44.942;0.008;2023-04-28T06:29:54;98456.09;;;18.80;63.04
47280;BME280;34064;44.942;0.008;2023-04-28T06:32:21;98444.47;;;18.88;62.72
47280;BME280;34064;44.942;0.008;2023-04-28T06:34:47;98434.16;;;18.91;62.44
47280;BME280;34064;44.942;0.008;2023-04-28T06:37:14;98433.81;;;18.94;62.87
47280;BME280;34064;44.942;0.008;2023-04-28T06:39:40;98427.72;;;19.00;62.62
47280;BME280;34064;44.942;0.008;2023-04-28T06:42:07;98416.88;;;19.09;62.45
47280;BME280;34064;44.942;0.008;2023-04-28T06:44:33;98413.38;;;19.23;62.50
47280;BME280;34064;44.942;0.008;2023-04-28T06:47:01;98415.75;;;19.41;62.48
47280;BME280;34064;44.942;0.008;2023-04-28T06:49:28;98420.38;;;19.47;62.65
47280;BME280;34064;44.942;0.008;2023-04-28T06:51:54;98417.13;;;19.52;62.72
47280;BME280;34064;44.942;0.008;2023-04-28T06:54:21;98414.75;;;19.57;63.20
47280;BME280;34064;44.942;0.008;2023-04-28T06:56:48;98409.34;;;19.57;63.62
47280;BME280;34064;44.942;0.008;2023-04-28T06:59:14;98406.75;;;19.64;63.42
47280;BME280;34064;44.942;0.008;2023-04-28T07:01:40;98401.28;;;19.72;63.34
47280;BME280;34064;44.942;0.008;2023-04-28T07:04:07;98388.91;;;19.78;63.15
47280;BME280;34064;44.942;0.008;2023-04-28T07:06:33;98391.78;;;19.91;62.86
47280;BME280;34064;44.942;0.008;2023-04-28T07:09:00;98408.72;;;20.00;62.84
47280;BME280;34064;44.942;0.008;2023-04-28T07:11:26;98415.22;;;20.06;62.89
47280;BME280;34064;44.942;0.008;2023-04-28T07:13:53;98400.97;;;20.12;62.78
47280;BME280;34064;44.942;0.008;2023-04-28T07:16:19;98395.81;;;20.17;62.83
47280;BME280;34064;44.942;0.008;2023-04-28T07:18:47;98399.47;;;20.24;62.71
47280;BME280;34064;44.942;0.008;2023-04-28T07:21:13;98391.25;;;20.33;62.69
47280;BME280;34064;44.942;0.008;2023-04-28T07:23:39;98401.28;;;20.39;62.38
47280;BME280;34064;44.942;0.008;2023-04-28T07:26:06;98413.34;;;20.43;61.80
47280;BME280;34064;44.942;0.008;2023-04-28T07:28:33;98417.53;;;20.46;61.81
47280;BME280;34064;44.942;0.008;2023-04-28T07:31:00;98407.19;;;20.49;62.05
47280;BME280;34064;44.942;0.008;2023-04-28T07:33:26;98409.31;;;20.54;62.25
47280;BME280;34064;44.942;0.008;2023-04-28T07:35:53;98405.66;;;20.62;61.64
47280;BME280;34064;44.942;0.008;2023-04-28T07:38:19;98396.13;;;20.66;61.60
47280;BME280;34064;44.942;0.008;2023-04-28T07:40:46;98410.38;;;20.75;61.29
47280;BME280;34064;44.942;0.008;2023-04-28T07:43:12;98403.38;;;20.80;61.23
47280;BME280;34064;44.942;0.008;2023-04-28T07:45:40;98401.56;;;20.87;60.65
47280;BME280;34064;44.942;0.008;2023-04-28T07:48:06;98404.34;;;20.94;60.59
47280;BME280;34064;44.942;0.008;2023-04-28T07:50:33;98419.75;;;21.00;60.33
47280;BME280;34064;44.942;0.008;2023-04-28T07:55:26;98407.97;;;21.08;59.84
47280;BME280;34064;44.942;0.008;2023-04-28T07:57:52;98426.47;;;21.11;59.72
47280;BME280;34064;44.942;0.008;2023-04-28T08:00:20;98419.03;;;21.13;59.55
47280;BME280;34064;44.942;0.008;2023-04-28T08:02:46;98407.84;;;21.16;59.67
47280;BME280;34064;44.942;0.008;2023-04-28T08:05:13;98413.47;;;21.22;59.53
47280;BME280;34064;44.942;0.008;2023-04-28T08:07:39;98410.38;;;21.25;59.66
47280;BME280;34064;44.942;0.008;2023-04-28T08:10:07;98414.38;;;21.29;59.09
47280;BME280;34064;44.942;0.008;2023-04-28T08:12:34;98416.66;;;21.32;59.23
47280;BME280;34064;44.942;0.008;2023-04-28T08:15:00;98423.38;;;21.36;58.99
47280;BME280;34064;44.942;0.008;2023-04-28T08:17:26;98411.00;;;21.48;58.52
47280;BME280;34064;44.942;0.008;2023-04-28T08:19:53;98390.34;;;21.69;58.02
47280;BME280;34064;44.942;0.008;2023-04-28T08:22:19;98382.53;;;21.88;57.91
47280;BME280;34064;44.942;0.008;2023-04-28T08:24:46;98378.84;;;22.02;57.37
47280;BME280;34064;44.942;0.008;2023-04-28T08:27:12;98378.47;;;22.12;56.79
47280;BME280;34064;44.942;0.008;2023-04-28T08:29:39;98372.03;;;22.20;56.54
47280;BME280;34064;44.942;0.008;2023-04-28T08:32:05;98360.63;;;22.31;55.98
47280;BME280;34064;44.942;0.008;2023-04-28T08:34:32;98361.53;;;22.45;56.27
47280;BME280;34064;44.942;0.008;2023-04-28T08:36:59;98362.16;;;22.61;55.64
47280;BME280;34064;44.942;0.008;2023-04-28T08:39:26;98348.84;;;22.72;55.79
47280;BME280;34064;44.942;0.008;2023-04-28T08:41:52;98337.81;;;22.87;55.20
47280;BME280;34064;44.942;0.008;2023-04-28T08:44:19;98342.81;;;22.97;54.62
47280;BME280;34064;44.942;0.008;2023-04-28T08:46:48;98338.22;;;23.04;55.01
47280;BME280;34064;44.942;0.008;2023-04-28T08:49:17;98332.81;;;23.11;54.53
47280;BME280;34064;44.942;0.008;2023-04-28T08:52:02;98331.97;;;23.17;54.54
47280;BME280;34064;44.942;0.008;2023-04-28T08:54:35;98328.47;;;23.24;54.27
47280;BME280;34064;44.942;0.008;2023-04-28T08:57:03;98322.19;;;23.36;54.24
47280;BME280;34064;44.942;0.008;2023-04-28T08:59:30;98321.50;;;23.48;54.03
47280;BME280;34064;44.942;0.008;2023-04-28T09:01:57;98316.69;;;23.57;53.55
47280;BME280;34064;44.942;0.008;2023-04-28T09:04:25;98319.56;;;23.62;54.05
47280;BME280;34064;44.942;0.008;2023-04-28T09:06:52;98312.22;;;23.76;53.24
47280;BME280;34064;44.942;0.008;2023-04-28T09:09:24;98307.16;;;23.86;53.12
47280;BME280;34064;44.942;0.008;2023-04-28T09:11:55;98303.19;;;23.95;53.15
47280;BME280;34064;44.942;0.008;2023-04-28T09:14:24;98304.41;;;24.06;52.82
47280;BME280;34064;44.942;0.008;2023-04-28T09:16:51;98295.78;;;24.16;52.64
47280;BME280;34064;44.942;0.008;2023-04-28T09:19:18;98299.25;;;24.30;52.58
47280;BME280;34064;44.942;0.008;2023-04-28T09:21:55;98292.44;;;24.46;52.14
47280;BME280;34064;44.942;0.008;2023-04-28T09:24:32;98289.03;;;24.57;52.32
47280;BME280;34064;44.942;0.008;2023-04-28T09:27:00;98286.00;;;24.72;52.01
47280;BME280;34064;44.942;0.008;2023-04-28T09:29:28;98283.53;;;24.89;51.59
47280;BME280;34064;44.942;0.008;2023-04-28T09:32:16;98281.78;;;25.02;51.76
47280;BME280;34064;44.942;0.008;2023-04-28T09:34:49;98276.22;;;25.15;51.65
47280;BME280;34064;44.942;0.008;2023-04-28T09:37:26;98266.72;;;25.25;51.03
47280;BME280;34064;44.942;0.008;2023-04-28T09:39:56;98270.63;;;25.29;50.86
47280;BME280;34064;44.942;0.008;2023-04-28T09:42:33;98262.34;;;25.42;50.63
47280;BME280;34064;44.942;0.008;2023-04-28T09:45:03;98256.16;;;25.53;50.60
47280;BME280;34064;44.942;0.008;2023-04-28T09:47:31;98254.31;;;25.66;50.79
47280;BME280;34064;44.942;0.008;2023-04-28T09:50:00;98248.47;;;25.81;50.45
47280;BME280;34064;44.942;0.008;2023-04-28T09:52:27;98235.75;;;25.93;50.01
47280;BME280;34064;44.942;0.008;2023-04-28T09:54:55;98238.13;;;26.01;49.97
47280;BME280;34064;44.942;0.008;2023-04-28T09:57:22;98236.25;;;26.02;49.88
47280;BME280;34064;44.942;0.008;2023-04-28T09:59:50;98242.06;;;26.06;49.57
47280;BME280;34064;44.942;0.008;2023-04-28T10:02:20;98235.09;;;26.10;48.78
47280;BME280;34064;44.942;0.008;2023-04-28T10:04:49;98238.78;;;26.15;49.00
47280;BME280;34064;44.942;0.008;2023-04-28T10:07:18;98225.34;;;26.21;49.00
47280;BME280;34064;44.942;0.008;2023-04-28T10:09:51;98231.50;;;26.28;48.60
47280;BME280;34064;44.942;0.008;2023-04-28T10:12:23;98228.53;;;26.41;48.71
47280;BME280;34064;44.942;0.008;2023-04-28T10:14:50;98223.94;;;26.54;48.68
47280;BME280;34064;44.942;0.008;2023-04-28T10:17:20;98214.81;;;26.60;48.36
47280;BME280;34064;44.942;0.008;2023-04-28T10:19:48;98215.56;;;26.67;48.51
47280;BME280;34064;44.942;0.008;2023-04-28T10:25:19;98207.03;;;26.99;47.86
47280;BME280;34064;44.942;0.008;2023-04-28T10:27:50;98203.44;;;27.11;47.75
47280;BME280;34064;44.942;0.008;2023-04-28T10:30:22;98197.88;;;27.17;47.83
47280;BME280;34064;44.942;0.008;2023-04-28T10:38:12;98181.69;;;27.39;47.21
47280;BME280;34064;44.942;0.008;2023-04-28T10:40:47;98172.75;;;27.56;47.38
47280;BME280;34064;44.942;0.008;2023-04-28T10:49:05;98168.88;;;27.81;46.78
47280;BME280;34064;44.942;0.008;2023-04-28T10:56:19;98165.59;;;28.13;47.26
47280;BME280;34064;44.942;0.008;2023-04-28T10:58:47;98160.78;;;28.20;47.17
47280;BME280;34064;44.942;0.008;2023-04-28T11:03:51;98147.41;;;28.53;45.43
47280;BME280;34064;44.942;0.008;2023-04-28T11:06:37;98146.06;;;28.55;45.62
47280;BME280;34064;44.942;0.008;2023-04-28T11:14:38;98133.09;;;28.85;46.05
47280;BME280;34064;44.942;0.008;2023-04-28T11:17:11;98130.19;;;28.91;45.64
47280;BME280;34064;44.942;0.008;2023-04-28T11:19:44;98125.91;;;29.01;45.37
47280;BME280;34064;44.942;0.008;2023-04-28T11:22:17;98118.91;;;29.10;45.41
47280;BME280;34064;44.942;0.008;2023-04-28T11:25:01;98108.09;;;29.20;45.63
47280;BME280;34064;44.942;0.008;2023-04-28T11:27:29;98105.94;;;29.22;45.28
47280;BME280;34064;44.942;0.008;2023-04-28T11:29:56;98105.09;;;29.22;45.35
47280;BME280;34064;44.942;0.008;2023-04-28T11:34:53;98095.22;;;29.43;45.31
47280;BME280;34064;44.942;0.008;2023-04-28T11:37:19;98101.84;;;29.47;45.44
47280;BME280;34064;44.942;0.008;2023-04-28T11:39:46;98093.75;;;29.57;45.25
47280;BME280;34064;44.942;0.008;2023-04-28T11:42:13;98082.13;;;29.72;44.99
47280;BME280;34064;44.942;0.008;2023-04-28T11:44:39;98073.22;;;29.87;44.94
47280;BME280;34064;44.942;0.008;2023-04-28T11:47:07;98071.41;;;29.98;45.21
47280;BME280;34064;44.942;0.008;2023-04-28T11:49:45;98063.84;;;30.11;44.47
47280;BME280;34064;44.942;0.008;2023-04-28T11:52:13;98067.38;;;30.11;43.78
47280;BME280;34064;44.942;0.008;2023-04-28T11:54:39;98061.34;;;30.09;44.58
47280;BME280;34064;44.942;0.008;2023-04-28T11:57:17;98072.06;;;30.16;44.06
47280;BME280;34064;44.942;0.008;2023-04-28T11:59:43;98070.72;;;30.18;44.19
47280;BME280;34064;44.942;0.008;2023-04-28T12:02:11;98054.91;;;30.26;44.63
47280;BME280;34064;44.942;0.008;2023-04-28T12:04:42;98060.38;;;30.31;43.54
47280;BME280;34064;44.942;0.008;2023-04-28T12:07:14;98060.44;;;30.36;44.10
47280;BME280;34064;44.942;0.008;2023-04-28T12:09:42;98061.81;;;30.44;44.03
47280;BME280;34064;44.942;0.008;2023-04-28T12:12:11;98053.09;;;30.47;43.39
47280;BME280;34064;44.942;0.008;2023-04-28T12:14:58;98061.28;;;30.42;43.49
47280;BME280;34064;44.942;0.008;2023-04-28T12:17:27;98063.47;;;30.40;43.45
47280;BME280;34064;44.942;0.008;2023-04-28T12:19:55;98065.94;;;30.41;42.93
47280;BME280;34064;44.942;0.008;2023-04-28T12:22:22;98064.56;;;30.39;43.28
47280;BME280;34064;44.942;0.008;2023-04-28T12:25:11;98062.69;;;30.49;43.45
47280;BME280;34064;44.942;0.008;2023-04-28T12:27:39;98053.97;;;30.58;43.38
47280;BME280;34064;44.942;0.008;2023-04-28T12:30:24;98048.53;;;30.68;42.64
47280;BME280;34064;44.942;0.008;2023-04-28T12:32:51;98049.34;;;30.63;43.12
47280;BME280;34064;44.942;0.008;2023-04-28T12:35:19;98048.53;;;30.68;43.49
47280;BME280;34064;44.942;0.008;2023-04-28T12:37:46;98045.84;;;30.78;43.52
47280;BME280;34064;44.942;0.008;2023-04-28T12:40:12;98043.16;;;30.89;42.96
47280;BME280;34064;44.942;0.008;2023-04-28T12:42:40;98037.13;;;30.92;42.44
47280;BME280;34064;44.942;0.008;2023-04-28T12:45:07;98034.69;;;31.01;42.53
47280;BME280;34064;44.942;0.008;2023-04-28T12:47:36;98031.47;;;31.14;42.45
47280;BME280;34064;44.942;0.008;2023-04-28T12:50:04;98028.47;;;31.21;42.65
47280;BME280;34064;44.942;0.008;2023-04-28T12:52:31;98026.81;;;31.30;42.70
47280;BME280;34064;44.942;0.008;2023-04-28T12:54:59;98025.19;;;31.45;42.45
47280;BME280;34064;44.942;0.008;2023-04-28T12:57:25;98014.50;;;31.53;41.96
47280;BME280;34064;44.942;0.008;2023-04-28T12:59:52;98015.63;;;31.68;41.86
47280;BME280;34064;44.942;0.008;2023-04-28T13:02:19;98016.44;;;31.68;41.64
47280;BME280;34064;44.942;0.008;2023-04-28T13:04:45;98024.66;;;31.73;41.63
47280;BME280;34064;44.942;0.008;2023-04-28T13:07:13;98013.97;;;31.77;41.42
47280;BME280;34064;44.942;0.008;2023-04-28T13:09:40;98027.44;;;31.79;41.28
47280;BME280;34064;44.942;0.008;2023-04-28T13:12:08;98021.91;;;31.89;41.52
47280;BME280;34064;44.942;0.008;2023-04-28T13:14:34;98008.16;;;31.99;40.91
47280;BME280;34064;44.942;0.008;2023-04-28T13:17:01;98016.41;;;31.99;40.26
47280;BME280;34064;44.942;0.008;2023-04-28T13:19:30;98012.28;;;31.97;40.79
47280;BME280;34064;44.942;0.008;2023-04-28T13:21:59;98004.84;;;32.13;40.57
47280;BME280;34064;44.942;0.008;2023-04-28T13:24:25;97998.25;;;32.24;40.91
47280;BME280;34064;44.942;0.008;2023-04-28T13:26:52;97994.34;;;32.35;40.61
47280;BME280;34064;44.942;0.008;2023-04-28T13:29:19;97991.06;;;32.39;40.26
47280;BME280;34064;44.942;0.008;2023-04-28T13:31:46;97986.66;;;32.43;39.75
47280;BME280;34064;44.942;0.008;2023-04-28T13:34:14;97988.84;;;32.41;39.22